createdAt,value
2019-03-01T00:02:23.780Z,33.90
2019-03-01T00:05:52.586Z,41.20
2019-03-01T00:09:00.067Z,34.87
2019-03-01T00:12:11.090Z,33.93
2019-03-01T00:15:02.139Z,33.63
2019-03-01T00:18:10.790Z,35.73
2019-03-01T00:21:36.825Z,37.10
2019-03-01T00:24:40.974Z,32.87
2019-03-01T00:27:43.518Z,39.13
2019-03-01T00:30:54.053Z,35.63
2019-03-01T00:33:50.198Z,29.87
2019-03-01T00:37:03.383Z,33.07
2019-03-01T00:39:53.417Z,40.33
2019-03-01T00:43:22.102Z,38.87
2019-03-01T00:45:51.618Z,32.77
2019-03-01T00:48:21.142Z,33.97
2019-03-01T00:50:50.722Z,41.63
2019-03-01T00:53:20.179Z,40.67
2019-03-01T00:55:49.718Z,37.83
2019-03-01T00:58:19.257Z,34.20
2019-03-01T01:00:49.601Z,33.77
2019-03-01T01:03:19.209Z,40.73
2019-03-01T01:05:48.695Z,33.87
2019-03-01T01:08:18.261Z,40.93
2019-03-01T01:10:47.792Z,43.27
2019-03-01T01:13:17.298Z,34.73
2019-03-01T01:15:46.836Z,37.00
2019-03-01T01:18:16.368Z,39.57
2019-03-01T01:20:45.993Z,46.00
2019-03-01T01:23:15.535Z,44.60
2019-03-01T01:25:45.055Z,47.63
2019-03-01T01:28:14.588Z,38.40
2019-03-01T01:30:44.121Z,33.70
2019-03-01T01:33:13.608Z,45.27
2019-03-01T01:35:43.226Z,46.23
2019-03-01T01:38:12.663Z,32.63
2019-03-01T01:40:42.213Z,45.53
2019-03-01T01:43:11.703Z,37.93
2019-03-01T01:45:41.250Z,36.63
2019-03-01T01:48:10.776Z,45.73
2019-03-01T01:50:40.323Z,46.80
2019-03-01T01:53:09.822Z,44.00
2019-03-01T01:55:39.366Z,43.57
2019-03-01T01:58:08.849Z,36.50
2019-03-01T02:00:39.196Z,43.80
2019-03-01T02:03:08.685Z,34.13
2019-03-01T02:05:38.198Z,43.17
2019-03-01T02:08:07.739Z,39.77
2019-03-01T02:10:37.291Z,35.10
2019-03-01T02:13:06.825Z,45.77
2019-03-01T02:15:36.318Z,37.20
2019-03-01T02:18:06.249Z,39.07
2019-03-01T02:20:35.719Z,44.60
2019-03-01T02:23:05.227Z,48.07
2019-03-01T02:25:34.736Z,38.53
2019-03-01T02:28:04.283Z,48.20
2019-03-01T02:30:34.048Z,45.60
2019-03-01T02:33:03.569Z,39.47
2019-03-01T02:35:33.137Z,41.00
2019-03-01T02:38:02.633Z,48.37
2019-03-01T02:40:35.699Z,44.50
2019-03-01T02:43:05.202Z,44.60
2019-03-01T02:45:34.768Z,45.77
2019-03-01T02:48:04.237Z,38.43
2019-03-01T02:50:33.774Z,40.87
2019-03-01T02:53:03.286Z,47.80
2019-03-01T02:55:32.804Z,40.13
2019-03-01T02:58:02.276Z,36.33
2019-03-01T03:00:31.931Z,40.43
2019-03-01T03:03:01.436Z,44.30
2019-03-01T03:05:31.058Z,46.20
2019-03-01T03:08:02.457Z,39.00
2019-03-01T03:10:32.020Z,42.33
2019-03-01T03:13:03.751Z,47.97
2019-03-01T03:15:42.125Z,37.27
2019-03-01T03:18:11.672Z,36.03
2019-03-01T03:20:41.207Z,33.87
2019-03-01T03:23:10.709Z,36.03
2019-03-01T03:25:40.256Z,47.70
2019-03-01T03:28:09.736Z,46.70
2019-03-01T03:30:39.255Z,34.23
2019-03-01T03:33:08.763Z,51.73
2019-03-01T03:35:38.306Z,51.27
2019-03-01T03:38:07.811Z,44.10
2019-03-01T03:40:37.325Z,47.77
2019-03-01T03:43:06.841Z,47.87
2019-03-01T03:45:36.343Z,46.13
2019-03-01T03:48:05.890Z,40.37
2019-03-01T03:50:35.379Z,41.90
2019-03-01T03:53:04.919Z,38.47
2019-03-01T03:55:34.546Z,47.77
2019-03-01T03:58:04.054Z,41.50
2019-03-01T04:00:33.592Z,34.70
2019-03-01T04:03:03.132Z,36.57
2019-03-01T04:05:32.761Z,35.53
2019-03-01T04:08:02.434Z,39.60
2019-03-01T04:10:31.920Z,44.30
2019-03-01T04:13:01.455Z,38.53
2019-03-01T04:15:30.928Z,50.73
2019-03-01T04:18:00.459Z,46.20
2019-03-01T04:20:29.942Z,53.00
2019-03-01T04:22:59.444Z,41.63
2019-03-01T04:25:29.000Z,45.67
2019-03-01T04:27:58.503Z,49.37
2019-03-01T04:30:27.972Z,50.13
2019-03-01T04:32:57.502Z,44.20
2019-03-01T04:35:26.972Z,47.67
2019-03-01T04:37:56.547Z,46.63
2019-03-01T04:40:26.069Z,47.53
2019-03-01T04:42:55.611Z,48.57
2019-03-01T04:45:25.127Z,45.67
2019-03-01T04:47:54.628Z,42.40
2019-03-01T04:50:24.175Z,46.17
2019-03-01T04:52:53.705Z,42.00
2019-03-01T04:55:24.916Z,45.67
2019-03-01T04:57:54.429Z,44.97
2019-03-01T05:00:24.765Z,37.73
2019-03-01T05:02:54.362Z,48.90
2019-03-01T05:05:23.878Z,36.30
2019-03-01T05:07:53.453Z,45.40
2019-03-01T05:10:22.994Z,46.60
2019-03-01T05:12:52.630Z,35.37
2019-03-01T05:15:22.928Z,46.20
2019-03-01T05:17:52.496Z,47.93
2019-03-01T05:20:22.058Z,43.87
2019-03-01T05:22:51.574Z,40.73
2019-03-01T05:25:21.085Z,40.53
2019-03-01T05:27:50.613Z,38.10
2019-03-01T05:30:20.140Z,42.83
2019-03-01T05:32:49.677Z,45.63
2019-03-01T05:35:19.229Z,49.37
2019-03-01T05:37:48.740Z,34.80
2019-03-01T05:40:18.254Z,46.17
2019-03-01T05:42:47.769Z,33.37
2019-03-01T05:45:19.790Z,46.80
2019-03-01T05:47:49.331Z,33.57
2019-03-01T05:50:18.803Z,44.50
2019-03-01T05:52:48.384Z,48.40
2019-03-01T05:55:17.898Z,46.77
2019-03-01T05:58:39.808Z,35.33
2019-03-01T06:01:48.593Z,47.60
2019-03-01T06:04:34.346Z,35.40
2019-03-01T06:07:28.525Z,40.67
2019-03-01T06:10:31.350Z,43.70
2019-03-01T06:13:39.186Z,37.10
2019-03-01T06:16:37.597Z,43.90
2019-03-01T06:19:27.262Z,42.93
2019-03-01T06:22:23.523Z,35.43
2019-03-01T06:25:20.620Z,45.40
2019-03-01T06:28:12.883Z,37.40
2019-03-01T06:31:22.230Z,41.90
2019-03-01T06:34:27.761Z,35.03
2019-03-01T06:37:13.794Z,33.40
2019-03-01T06:40:29.268Z,35.07
2019-03-01T06:43:07.953Z,31.57
2019-03-01T06:46:18.723Z,33.67
2019-03-01T06:49:07.152Z,30.43
2019-03-01T06:51:37.871Z,41.30
2019-03-01T06:54:07.450Z,35.43
2019-03-01T06:56:36.931Z,29.03
2019-03-01T06:59:07.634Z,35.17
2019-03-01T07:01:45.462Z,29.00
2019-03-01T07:04:18.563Z,34.17
2019-03-01T07:06:48.139Z,29.27
2019-03-01T07:09:17.652Z,31.53
2019-03-01T07:11:47.217Z,37.47
2019-03-01T07:14:16.719Z,39.47
2019-03-01T07:16:46.254Z,39.03
2019-03-01T07:19:15.752Z,28.80
2019-03-01T07:21:45.269Z,29.83
2019-03-01T07:24:14.832Z,33.63
2019-03-01T07:26:44.486Z,37.47
2019-03-01T07:29:13.993Z,31.40
2019-03-01T07:31:43.475Z,30.37
2019-03-01T07:34:13.910Z,38.87
2019-03-01T07:36:43.423Z,27.93
2019-03-01T07:39:12.985Z,32.03
2019-03-01T07:41:42.475Z,40.70
2019-03-01T07:44:12.002Z,34.23
2019-03-01T07:46:41.524Z,32.80
2019-03-01T07:49:11.026Z,40.73
2019-03-01T07:51:40.579Z,35.50
2019-03-01T07:54:13.340Z,28.97
2019-03-01T07:56:41.326Z,31.13
2019-03-01T07:59:10.807Z,37.53
2019-03-01T08:01:40.361Z,31.37
2019-03-01T08:04:09.869Z,39.73
2019-03-01T08:06:39.380Z,43.23
2019-03-01T08:09:13.475Z,35.13
2019-03-01T08:11:42.994Z,30.97
2019-03-01T08:14:12.544Z,32.83
2019-03-01T08:16:42.123Z,36.80
2019-03-01T08:19:11.606Z,36.67
2019-03-01T08:21:42.804Z,30.83
2019-03-01T08:24:12.248Z,28.03
2019-03-01T08:26:41.736Z,31.67
2019-03-01T08:29:11.275Z,33.67
2019-03-01T08:31:40.769Z,33.30
2019-03-01T08:34:10.295Z,30.33
2019-03-01T08:36:42.507Z,28.83
2019-03-01T08:39:10.977Z,32.03
2019-03-01T08:41:40.524Z,31.73
2019-03-01T08:44:10.032Z,31.23
2019-03-01T08:46:42.036Z,27.10
2019-03-01T08:49:11.520Z,29.60
2019-03-01T08:51:41.078Z,29.90
2019-03-01T08:54:10.621Z,26.27
2019-03-01T08:56:40.150Z,24.87
2019-03-01T08:59:09.643Z,29.83
2019-03-01T09:01:41.747Z,29.63
2019-03-01T09:04:14.256Z,28.63
2019-03-01T09:06:43.901Z,28.77
2019-03-01T09:09:13.410Z,31.20
2019-03-01T09:11:44.615Z,35.73
2019-03-01T09:14:14.086Z,31.90
2019-03-01T09:16:43.606Z,32.17
2019-03-01T09:19:13.079Z,34.97
2019-03-01T09:21:44.642Z,27.87
2019-03-01T09:24:13.872Z,33.83
2019-03-01T09:26:43.391Z,34.07
2019-03-01T09:29:18.371Z,30.27
2019-03-01T09:31:44.099Z,33.63
2019-03-01T09:34:13.594Z,30.50
2019-03-01T09:36:45.950Z,27.03
2019-03-01T09:39:18.125Z,35.27
2019-03-01T09:41:46.675Z,26.10
2019-03-01T09:44:16.189Z,41.23
2019-03-01T09:46:45.718Z,38.73
2019-03-01T09:49:15.214Z,18.73
2019-03-01T09:51:49.189Z,39.63
2019-03-01T09:54:15.869Z,40.43
2019-03-01T09:56:45.425Z,37.67
2019-03-01T09:59:14.982Z,34.30
2019-03-01T10:01:44.487Z,37.03
2019-03-01T10:04:14.014Z,40.83
2019-03-01T10:06:43.585Z,37.87
2019-03-01T10:09:13.095Z,38.40
2019-03-01T10:11:42.649Z,39.53
2019-03-01T10:14:12.162Z,34.13
2019-03-01T10:16:41.690Z,35.23
2019-03-01T10:19:11.204Z,40.67
2019-03-01T10:21:40.751Z,42.37
2019-03-01T10:24:10.271Z,33.33
2019-03-01T10:26:39.767Z,30.80
2019-03-01T10:29:09.305Z,37.97
2019-03-01T10:31:38.796Z,36.27
2019-03-01T10:34:08.352Z,36.63
2019-03-01T10:36:37.903Z,34.27
2019-03-01T10:39:13.023Z,37.57
2019-03-01T10:41:42.574Z,38.13
2019-03-01T10:44:12.119Z,33.83
2019-03-01T10:46:41.659Z,38.10
2019-03-01T10:49:11.155Z,31.83
2019-03-01T10:51:40.679Z,34.97
2019-03-01T10:54:10.191Z,35.10
2019-03-01T10:56:39.734Z,34.07
2019-03-01T10:59:09.215Z,32.90
2019-03-01T11:01:38.747Z,36.57
2019-03-01T11:04:08.235Z,33.87
2019-03-01T11:06:37.767Z,33.57
2019-03-01T11:09:08.584Z,30.00
2019-03-01T11:11:38.104Z,34.00
2019-03-01T11:14:07.580Z,32.17
2019-03-01T11:16:37.132Z,33.73
2019-03-01T11:19:06.630Z,28.87
2019-03-01T11:21:36.195Z,33.03
2019-03-01T11:24:05.730Z,28.77
2019-03-01T11:26:35.226Z,33.90
2019-03-01T11:29:04.853Z,32.80
2019-03-01T11:31:34.350Z,36.73
2019-03-01T11:34:04.151Z,29.07
2019-03-01T11:36:33.627Z,36.63
2019-03-01T11:39:03.341Z,33.83
2019-03-01T11:41:32.960Z,34.10
2019-03-01T11:44:02.506Z,33.70
2019-03-01T11:46:32.012Z,34.47
2019-03-01T11:49:01.503Z,31.87
2019-03-01T11:51:31.033Z,33.97
2019-03-01T11:54:00.564Z,33.70
2019-03-01T11:56:30.070Z,28.97
2019-03-01T11:58:59.602Z,30.43
2019-03-01T12:01:29.123Z,32.13
2019-03-01T12:03:58.653Z,22.60
2019-03-01T12:06:28.238Z,28.60
2019-03-01T12:08:57.758Z,29.40
2019-03-01T12:11:27.318Z,29.93
2019-03-01T12:13:56.790Z,27.77
2019-03-01T12:16:26.300Z,27.80
2019-03-01T12:18:55.830Z,19.60
2019-03-01T12:21:25.350Z,22.13
2019-03-01T12:23:54.874Z,24.90
2019-03-01T12:26:24.398Z,27.87
2019-03-01T12:28:54.005Z,22.73
2019-03-01T12:31:23.517Z,21.53
2019-03-01T12:33:53.025Z,28.10
2019-03-01T12:36:22.592Z,27.47
2019-03-01T12:38:52.068Z,24.63
2019-03-01T12:41:21.615Z,24.37
2019-03-01T12:43:51.126Z,26.00
2019-03-01T12:46:20.656Z,27.57
2019-03-01T12:48:50.223Z,26.00
2019-03-01T12:51:19.746Z,23.07
2019-03-01T12:53:49.257Z,24.00
2019-03-01T12:56:18.811Z,25.83
2019-03-01T12:58:48.336Z,22.70
2019-03-01T13:01:17.818Z,23.67
2019-03-01T13:03:47.331Z,23.73
2019-03-01T13:06:16.891Z,20.07
2019-03-01T13:08:47.686Z,18.13
2019-03-01T13:11:17.615Z,17.73
2019-03-01T13:13:47.093Z,18.90
2019-03-01T13:16:16.658Z,15.63
2019-03-01T13:18:47.731Z,15.83
2019-03-01T13:21:17.375Z,14.30
2019-03-01T13:23:46.935Z,13.70
2019-03-01T13:26:16.443Z,15.00
2019-03-01T13:28:47.090Z,13.97
2019-03-01T13:31:17.317Z,13.40
2019-03-01T13:33:46.806Z,12.33
2019-03-01T13:36:16.310Z,11.10
2019-03-01T13:38:45.880Z,11.93
2019-03-01T13:41:15.434Z,10.77
2019-03-01T13:43:44.999Z,12.27
2019-03-01T13:46:14.530Z,10.97
2019-03-01T13:48:44.058Z,10.17
2019-03-01T13:51:13.982Z,11.13
2019-03-01T13:53:48.968Z,10.17
2019-03-01T13:56:15.975Z,9.33
2019-03-01T13:58:45.495Z,6.97
2019-03-01T14:01:15.144Z,7.50
2019-03-01T14:03:44.683Z,5.40
2019-03-01T14:06:15.828Z,5.73
2019-03-01T14:08:45.327Z,5.60
2019-03-01T14:11:15.327Z,5.20
2019-03-01T14:13:47.706Z,5.03
2019-03-01T14:16:20.383Z,5.30
2019-03-01T14:18:48.310Z,5.03
2019-03-01T14:21:17.819Z,4.83
2019-03-01T14:23:47.363Z,5.00
2019-03-01T14:26:18.421Z,3.80
2019-03-01T14:28:48.512Z,4.10
2019-03-01T14:31:18.049Z,3.10
2019-03-01T14:33:47.563Z,3.50
2019-03-01T14:36:17.066Z,3.83
2019-03-01T14:38:46.570Z,2.97
2019-03-01T14:41:16.110Z,2.77
2019-03-01T14:43:45.707Z,3.13
2019-03-01T14:46:17.614Z,3.03
2019-03-01T14:48:46.991Z,2.57
2019-03-01T14:51:16.553Z,3.10
2019-03-01T14:53:46.057Z,3.00
2019-03-01T14:56:22.493Z,2.87
2019-03-01T14:59:05.731Z,2.80
2019-03-01T15:02:07.170Z,2.73
2019-03-01T15:04:36.658Z,2.80
2019-03-01T15:07:06.140Z,2.43
2019-03-01T15:09:35.663Z,2.40
2019-03-01T15:12:05.272Z,2.40
2019-03-01T15:14:34.801Z,2.20
2019-03-01T15:17:04.611Z,2.20
2019-03-01T15:19:34.110Z,1.80
2019-03-01T15:22:03.932Z,2.23
2019-03-01T15:24:36.176Z,1.90
2019-03-01T15:27:05.202Z,1.87
2019-03-01T15:29:34.804Z,2.27
2019-03-01T15:32:04.314Z,1.87
2019-03-01T15:34:33.842Z,2.70
2019-03-01T15:37:03.321Z,2.20
2019-03-01T15:39:32.868Z,2.03
2019-03-01T15:42:02.343Z,1.97
2019-03-01T15:44:31.830Z,2.30
2019-03-01T15:47:01.386Z,2.50
2019-03-01T15:49:30.875Z,1.97
2019-03-01T15:52:00.387Z,2.13
2019-03-01T15:54:32.459Z,2.20
2019-03-01T15:57:01.065Z,2.03
2019-03-01T15:59:30.596Z,2.50
2019-03-01T16:02:00.187Z,2.90
2019-03-01T16:04:30.434Z,1.90
2019-03-01T16:07:00.857Z,2.03
2019-03-01T16:09:30.397Z,1.90
2019-03-01T16:11:59.916Z,2.57
2019-03-01T16:14:29.415Z,2.33
2019-03-01T16:16:58.990Z,1.77
2019-03-01T16:19:28.486Z,2.00
2019-03-01T16:21:58.000Z,1.53
2019-03-01T16:24:27.646Z,2.07
2019-03-01T16:26:57.165Z,1.73
2019-03-01T16:29:26.662Z,1.60
2019-03-01T16:31:56.135Z,1.80
2019-03-01T16:34:25.683Z,1.77
2019-03-01T16:36:57.203Z,1.73
2019-03-01T16:39:26.758Z,1.70
2019-03-01T16:41:56.238Z,1.73
2019-03-01T16:44:25.804Z,1.80
2019-03-01T16:46:55.323Z,1.60
2019-03-01T16:49:27.162Z,2.13
2019-03-01T16:51:55.992Z,1.97
2019-03-01T16:54:25.845Z,1.77
2019-03-01T16:56:55.357Z,2.23
2019-03-01T16:59:24.874Z,2.93
2019-03-01T17:01:54.379Z,2.53
2019-03-01T17:04:27.090Z,3.07
2019-03-01T17:06:55.026Z,3.17
2019-03-01T17:09:24.560Z,2.63
2019-03-01T17:11:54.095Z,1.60
2019-03-01T17:14:23.591Z,2.37
2019-03-01T17:16:53.139Z,2.23
2019-03-01T17:19:24.112Z,2.60
2019-03-01T17:21:53.750Z,2.07
2019-03-01T17:24:23.219Z,2.10
2019-03-01T17:26:52.769Z,1.70
2019-03-01T17:29:22.282Z,2.10
2019-03-01T17:31:51.793Z,2.03
2019-03-01T17:34:21.897Z,2.73
2019-03-01T17:36:53.341Z,2.50
2019-03-01T17:39:25.187Z,2.67
2019-03-01T17:41:54.807Z,2.30
2019-03-01T17:44:24.330Z,2.60
2019-03-01T17:46:53.826Z,2.73
2019-03-01T17:49:23.347Z,4.20
2019-03-01T17:51:53.369Z,2.97
2019-03-01T17:54:23.975Z,3.27
2019-03-01T17:56:54.020Z,3.33
2019-03-01T17:59:24.198Z,2.80
2019-03-01T18:01:53.723Z,2.70
2019-03-01T18:04:25.024Z,2.07
2019-03-01T18:06:54.393Z,2.10
2019-03-01T18:09:23.886Z,2.03
2019-03-01T18:11:53.451Z,1.87
2019-03-01T18:14:22.930Z,2.17
2019-03-01T18:16:52.443Z,2.67
2019-03-01T18:19:23.786Z,2.73
2019-03-01T18:21:53.150Z,2.20
2019-03-01T18:24:22.679Z,3.27
2019-03-01T18:26:52.223Z,2.27
2019-03-01T18:29:21.723Z,3.00
2019-03-01T18:31:51.194Z,2.57
2019-03-01T18:34:20.727Z,2.40
2019-03-01T18:36:50.240Z,3.13
2019-03-01T18:39:19.792Z,2.93
2019-03-01T18:41:49.274Z,3.00
2019-03-01T18:44:22.230Z,2.93
2019-03-01T18:46:51.606Z,2.50
2019-03-01T18:49:21.106Z,3.10
2019-03-01T18:51:50.806Z,3.03
2019-03-01T18:54:20.362Z,3.03
2019-03-01T18:56:49.873Z,2.63
2019-03-01T18:59:21.712Z,2.60
2019-03-01T19:01:50.545Z,2.87
2019-03-01T19:04:29.347Z,2.80
2019-03-01T19:06:51.462Z,3.30
2019-03-01T19:09:21.917Z,3.63
2019-03-01T19:11:51.427Z,2.80
2019-03-01T19:14:20.925Z,2.87
2019-03-01T19:16:50.418Z,4.43
2019-03-01T19:19:19.920Z,4.40
2019-03-01T19:21:49.609Z,3.83
2019-03-01T19:24:20.798Z,3.63
2019-03-01T19:26:50.283Z,3.57
2019-03-01T19:29:19.798Z,3.37
2019-03-01T19:31:49.296Z,4.37
2019-03-01T19:34:18.767Z,4.13
2019-03-01T19:36:48.307Z,3.53
2019-03-01T19:39:20.102Z,2.90
2019-03-01T19:41:49.627Z,2.80
2019-03-01T19:44:19.106Z,4.03
2019-03-01T19:46:51.328Z,2.90
2019-03-01T19:49:19.874Z,3.17
2019-03-01T19:51:49.426Z,3.90
2019-03-01T19:54:18.922Z,2.90
2019-03-01T19:56:48.419Z,2.80
2019-03-01T19:59:17.935Z,3.27
2019-03-01T20:01:49.498Z,3.20
2019-03-01T20:04:21.202Z,2.73
2019-03-01T20:06:49.737Z,3.77
2019-03-01T20:09:19.322Z,2.93
2019-03-01T20:11:48.826Z,2.80
2019-03-01T20:14:18.359Z,2.57
2019-03-01T20:16:47.882Z,3.33
2019-03-01T20:19:20.982Z,3.10
2019-03-01T20:21:48.584Z,3.33
2019-03-01T20:24:18.064Z,3.63
2019-03-01T20:26:47.555Z,3.53
2019-03-01T20:29:17.072Z,4.00
2019-03-01T20:31:46.579Z,4.07
2019-03-01T20:34:16.110Z,4.43
2019-03-01T20:36:45.647Z,3.93
2019-03-01T20:39:16.449Z,5.83
2019-03-01T20:41:46.569Z,6.43
2019-03-01T20:44:18.736Z,7.30
2019-03-01T20:46:47.463Z,8.20
2019-03-01T20:49:16.990Z,7.73
2019-03-01T20:51:46.459Z,7.43
2019-03-01T20:54:15.993Z,8.33
2019-03-01T20:56:48.009Z,8.83
2019-03-01T20:59:16.735Z,8.23
2019-03-01T21:01:46.222Z,7.37
2019-03-01T21:04:15.768Z,7.67
2019-03-01T21:06:45.294Z,7.70
2019-03-01T21:09:14.810Z,7.30
2019-03-01T21:11:44.307Z,7.90
2019-03-01T21:14:13.845Z,8.03
2019-03-01T21:16:44.774Z,8.07
2019-03-01T21:19:14.459Z,7.90
2019-03-01T21:21:44.000Z,8.23
2019-03-01T21:24:13.498Z,8.13
2019-03-01T21:26:42.971Z,8.13
2019-03-01T21:29:13.471Z,8.20
2019-03-01T21:31:43.066Z,8.70
2019-03-01T21:34:12.596Z,7.33
2019-03-01T21:36:42.083Z,7.83
2019-03-01T21:39:12.218Z,7.33
2019-03-01T21:41:44.834Z,8.43
2019-03-01T21:44:13.623Z,8.37
2019-03-01T21:46:43.427Z,7.83
2019-03-01T21:49:13.057Z,7.20
2019-03-01T21:51:42.553Z,6.67
2019-03-01T21:54:12.559Z,7.33
2019-03-01T21:56:55.592Z,6.70
2019-03-01T21:59:17.290Z,7.70
2019-03-01T22:01:45.516Z,6.73
2019-03-01T22:04:15.149Z,6.57
2019-03-01T22:06:44.673Z,7.03
2019-03-01T22:09:14.299Z,7.20
2019-03-01T22:11:45.813Z,5.80
2019-03-01T22:14:14.927Z,7.23
2019-03-01T22:16:44.471Z,6.57
2019-03-01T22:19:13.927Z,7.20
2019-03-01T22:21:43.449Z,6.97
2019-03-01T22:24:13.052Z,6.27
2019-03-01T22:26:42.579Z,7.43
2019-03-01T22:29:12.345Z,7.23
2019-03-01T22:31:42.608Z,6.07
2019-03-01T22:34:12.150Z,5.60
2019-03-01T22:36:41.602Z,5.70
2019-03-01T22:39:13.706Z,6.97
2019-03-01T22:41:42.300Z,6.43
2019-03-01T22:44:11.821Z,6.73
2019-03-01T22:46:41.331Z,6.90
2019-03-01T22:49:10.857Z,6.83
2019-03-01T22:51:40.324Z,6.30
2019-03-01T22:54:09.856Z,6.57
2019-03-01T22:56:39.370Z,7.43
2019-03-01T22:59:11.958Z,6.77
2019-03-01T23:01:44.613Z,6.77
2019-03-01T23:04:14.226Z,6.43
2019-03-01T23:06:43.790Z,6.20
2019-03-01T23:09:17.309Z,5.57
2019-03-01T23:11:46.834Z,7.27
2019-03-01T23:14:16.347Z,7.10
2019-03-01T23:16:45.857Z,5.63
2019-03-01T23:19:34.397Z,7.23
2019-03-01T23:22:03.897Z,7.97
2019-03-01T23:24:35.029Z,6.33
2019-03-01T23:27:04.581Z,7.57
2019-03-01T23:29:34.074Z,5.27
2019-03-01T23:32:03.602Z,6.93
2019-03-01T23:34:33.122Z,6.17
2019-03-01T23:37:03.573Z,6.40
2019-03-01T23:39:33.172Z,6.37
2019-03-01T23:42:02.668Z,6.23
2019-03-01T23:44:32.151Z,6.33
2019-03-01T23:47:02.860Z,9.67
2019-03-01T23:49:32.905Z,7.00
2019-03-01T23:52:02.386Z,7.17
2019-03-01T23:54:31.859Z,7.40
2019-03-01T23:57:02.017Z,6.90
2019-03-01T23:59:32.580Z,6.07
